Norwegian Gem — C6VG8 — position and weather

sailwx.info

Track history (hours):
 
Tides and Currents Weather Stations Pressure Air Temp Water Temp Dewpoint Dewpoint Depression Visibility Wind Speed Wind Dir Waves Ship Positions

Norwegian Gem (Bahamas)

Last reported at 2019-Mar-22 12:28 UTC. Time now 2019-Mar-22 12:57 UTC.
Position N 18°01' W 063°12'.

Length 294 m; draft 8.6 m.

Type: Ship. MMSI: 309951000.

Date/timePositionNaut miles runAvg speedWind from/ knotsBaromVisibWave heightAir tempDewpointWater temp
2019-Mar-22 12:28N 18°01' W 063°12'1215.4
2019-Mar-22 11:41N 18°02' W 063°25'815.2
2019-Mar-22 11:09N 18°02' W 063°34'315.3
2019-Mar-22 10:57N 18°02' W 063°37'715.1
2019-Mar-22 10:27N 18°03' W 063°45'6118.9
2019-Mar-22 07:15N 18°08' W 064°48'520.2
2019-Mar-22 07:00N 18°09' W 064°53'3282.5
2019-Mar-22 07:00N 18°06' W 064°54'7217.7 110 / 201015.2 24.0 27.0
2019-Mar-22 02:57N 18°30' W 066°05'3 7.3
2019-Mar-22 02:29N 18°27' W 066°07'1 1.1
2019-Mar-22 02:00N 18°28' W 066°07'0 0.0
2019-Mar-22 01:29N 18°28' W 066°07'0 0.0
2019-Mar-22 00:59N 18°28' W 066°07'0 0.0
2019-Mar-22 00:29N 18°28' W 066°07'0 0.0
2019-Mar-21 23:59N 18°28' W 066°07'0 0.0
2019-Mar-21 23:29N 18°28' W 066°07'0 0.0
2019-Mar-21 22:58N 18°28' W 066°07'0 0.0
2019-Mar-21 22:28N 18°28' W 066°07'0 0.0
2019-Mar-21 21:58N 18°28' W 066°07'0 0.0
2019-Mar-21 21:28N 18°28' W 066°07'0 0.0
2019-Mar-21 21:01N 18°28' W 066°07'0 0.0
2019-Mar-21 20:30N 18°28' W 066°07'0 0.0
2019-Mar-21 20:00N 18°28' W 066°07'0 0.0
2019-Mar-21 19:30N 18°28' W 066°07'0 0.0
2019-Mar-21 19:00N 18°28' W 066°07'0 0.0
2019-Mar-21 18:29N 18°28' W 066°07'0 0.0
2019-Mar-21 17:59N 18°28' W 066°07'0 0.0
2019-Mar-21 17:29N 18°28' W 066°07'0 0.0
2019-Mar-21 16:59N 18°28' W 066°07'0 0.0
2019-Mar-21 16:30N 18°28' W 066°07'1 2.0
2019-Mar-21 16:00N 18°28' W 066°08'30021.4
2019-Mar-21 02:00N 23°18' W 067°30'50721.1 200 / 181015.710.8 24.0 24.0
2019-Mar-20 02:00N 31°24' W 070°12'25721.4 050 / 441018.210.8 15.0 14.0
2019-Mar-19 14:00N 35°30' W 071°42'15922.7 060 / 351027.210.8 11.0 12.0
2019-Mar-19 07:00N 38°06' W 072°18'15722.5 050 / 121027.4 6.0 8.0
2019-Mar-19 00:02N 40°27' W 073°47'1 8.2
2019-Mar-18 23:53N 40°27' W 073°49'4 9.7
2019-Mar-18 23:30N 40°29' W 073°53'714.1
2019-Mar-18 23:00N 40°32' W 074°01'815.2
2019-Mar-18 22:31N 40°39' W 074°03'713.1
2019-Mar-18 22:00N 40°46' W 074°01'1 1.2
2019-Mar-18 21:29N 40°46' W 073°60'0 0.0
2019-Mar-18 20:58N 40°46' W 073°60'0 0.0
2019-Mar-18 20:28N 40°46' W 073°60'0 0.0
2019-Mar-18 19:55N 40°46' W 073°60'0 0.0
2019-Mar-18 19:28N 40°46' W 073°60'0 0.0
2019-Mar-18 18:58N 40°46' W 073°60'0 0.0
2019-Mar-18 18:30N 40°46' W 073°60'0 0.0
2019-Mar-18 17:57N 40°46' W 073°60'0 0.0
2019-Mar-18 17:24N 40°46' W 073°60'0 0.0
2019-Mar-18 17:00N 40°46' W 073°60'0 0.0
2019-Mar-18 16:29N 40°46' W 073°60'0 0.0
2019-Mar-18 15:56N 40°46' W 073°60'0 0.0
2019-Mar-18 15:29N 40°46' W 073°60'0 0.0
2019-Mar-18 14:50N 40°46' W 073°60'0 0.0
2019-Mar-18 14:26N 40°46' W 073°60'0 0.0
2019-Mar-18 14:00N 40°46' W 073°60'0 0.6
2019-Mar-18 13:30N 40°46' W 074°00'3 6.9
2019-Mar-18 13:01N 40°43' W 074°02'510.5
2019-Mar-18 12:30N 40°37' W 074°03'713.6
2019-Mar-18 12:00N 40°31' W 073°60'510.5
2019-Mar-18 11:30N 40°29' W 073°53'5 9.1
2019-Mar-18 10:59N 40°27' W 073°48'4 8.4
2019-Mar-18 10:30N 40°24' W 073°43'4 9.0
2019-Mar-18 10:00N 40°22' W 073°39'13622.7
2019-Mar-18 04:00N 38°18' W 072°24'54121.7 310 / 161023.2 6.0 16.0
2019-Mar-17 03:00N 29°42' W 069°06'72317.6 250 / 131020.0 21.0 25.0
2019-Mar-15 09:50N 18°17' W 064°55'412.1
2019-Mar-15 09:30N 18°13' W 064°53'713.5
2019-Mar-15 09:00N 18°11' W 064°46'6314.8
2019-Mar-15 04:44N 17°58' W 063°41'516.7
2019-Mar-15 04:27N 17°56' W 063°37'816.1
2019-Mar-15 03:58N 17°53' W 063°29'815.9
2019-Mar-15 03:27N 17°49' W 063°22'1635.1
2019-Mar-15 03:00N 17°42' W 063°06'9987.4 090 / 241017.7 24.0 27.0
2019-Mar-15 02:59N 17°46' W 063°14'815.7
2019-Mar-15 02:28N 17°42' W 063°07'915.7
2019-Mar-15 01:52N 17°38' W 062°58'716.5
2019-Mar-15 01:27N 17°35' W 062°51'129 6.0
2019-Mar-14 04:00N 15°42' W 061°48'6019.3 090 / 241015.9 25.0 24.0
2019-Mar-14 00:52N 14°45' W 061°28'820.4
2019-Mar-14 00:28N 14°37' W 061°25'920.4
2019-Mar-14 00:00N 14°29' W 061°21'1021.2
2019-Mar-13 23:31N 14°20' W 061°15'1020.9
2019-Mar-13 23:01N 14°11' W 061°10'1019.7
2019-Mar-13 22:30N 14°03' W 061°03'4 0.4
2019-Mar-13 12:36N 14°01' W 060°60'4713.1
2019-Mar-13 09:00N 14°42' W 061°24'15619.8 090 / 151014.010.8 24.6
2019-Mar-13 01:06N 16°55' W 062°50'220.0
2019-Mar-13 01:00N 16°57' W 062°51'2819.8
2019-Mar-12 23:35N 17°22' W 063°04'319.8
2019-Mar-12 23:27N 17°24' W 063°05'1419.7
2019-Mar-12 22:44N 17°38' W 063°06'520.1
2019-Mar-12 22:30N 17°43' W 063°06'1119.8
2019-Mar-12 21:57N 17°54' W 063°05'712.9
2019-Mar-12 21:27N 18°00' W 063°04'1 1.0
2019-Mar-12 20:23N 18°01' W 063°03'0 0.0
2019-Mar-12 19:32N 18°01' W 063°03'0 0.0
2019-Mar-12 19:20N 18°01' W 063°03'0 0.0
2019-Mar-12 18:10N 18°01' W 063°03'0 0.0
2019-Mar-12 17:52N 18°01' W 063°03'0 0.0
2019-Mar-12 17:22N 18°01' W 063°03'0 0.0
2019-Mar-12 16:24N 18°01' W 063°03'0 0.0
2019-Mar-12 15:57N 18°01' W 063°03'0 0.0
2019-Mar-12 15:18N 18°01' W 063°03'0 0.0
2019-Mar-12 14:51N 18°01' W 063°03'0 0.0
2019-Mar-12 14:18N 18°01' W 063°03'0 0.0
2019-Mar-12 13:41N 18°01' W 063°03'0 0.5
2019-Mar-12 13:16N 18°01' W 063°03'1 4.1
2019-Mar-12 12:58N 18°00' W 063°04'  
Track history (hours):
 
Tides and Currents Weather Stations Pressure Air Temp Water Temp Dewpoint Dewpoint Depression Visibility Wind Speed Wind Dir Waves Ship Positions

Norwegian Gem (Bahamas)

Last reported at 2019-Mar-22 12:28 UTC. Time now 2019-Mar-22 12:57 UTC.
Position N 18°01' W 063°12'.

Length 294 m; draft 8.6 m.

Type: Ship. MMSI: 309951000.

Date/timePositionNaut miles runAvg speedWind from/ knotsBaromVisibWave heightAir tempDewpointWater temp
2019-Mar-22 12:28N 18°01' W 063°12'1215.4
2019-Mar-22 11:41N 18°02' W 063°25'815.2
2019-Mar-22 11:09N 18°02' W 063°34'315.3
2019-Mar-22 10:57N 18°02' W 063°37'715.1
2019-Mar-22 10:27N 18°03' W 063°45'6118.9
2019-Mar-22 07:15N 18°08' W 064°48'520.2
2019-Mar-22 07:00N 18°09' W 064°53'3282.5
2019-Mar-22 07:00N 18°06' W 064°54'7217.7 110 / 201015.2 24.0 27.0
2019-Mar-22 02:57N 18°30' W 066°05'3 7.3
2019-Mar-22 02:29N 18°27' W 066°07'1 1.1
2019-Mar-22 02:00N 18°28' W 066°07'0 0.0
2019-Mar-22 01:29N 18°28' W 066°07'0 0.0
2019-Mar-22 00:59N 18°28' W 066°07'0 0.0
2019-Mar-22 00:29N 18°28' W 066°07'0 0.0
2019-Mar-21 23:59N 18°28' W 066°07'0 0.0
2019-Mar-21 23:29N 18°28' W 066°07'0 0.0
2019-Mar-21 22:58N 18°28' W 066°07'0 0.0
2019-Mar-21 22:28N 18°28' W 066°07'0 0.0
2019-Mar-21 21:58N 18°28' W 066°07'0 0.0
2019-Mar-21 21:28N 18°28' W 066°07'0 0.0
2019-Mar-21 21:01N 18°28' W 066°07'0 0.0
2019-Mar-21 20:30N 18°28' W 066°07'0 0.0
2019-Mar-21 20:00N 18°28' W 066°07'0 0.0
2019-Mar-21 19:30N 18°28' W 066°07'0 0.0
2019-Mar-21 19:00N 18°28' W 066°07'0 0.0
2019-Mar-21 18:29N 18°28' W 066°07'0 0.0
2019-Mar-21 17:59N 18°28' W 066°07'0 0.0
2019-Mar-21 17:29N 18°28' W 066°07'0 0.0
2019-Mar-21 16:59N 18°28' W 066°07'0 0.0
2019-Mar-21 16:30N 18°28' W 066°07'1 2.0
2019-Mar-21 16:00N 18°28' W 066°08'30021.4
2019-Mar-21 02:00N 23°18' W 067°30'50721.1 200 / 181015.710.8 24.0 24.0
2019-Mar-20 02:00N 31°24' W 070°12'25721.4 050 / 441018.210.8 15.0 14.0
2019-Mar-19 14:00N 35°30' W 071°42'15922.7 060 / 351027.210.8 11.0 12.0
2019-Mar-19 07:00N 38°06' W 072°18'15722.5 050 / 121027.4 6.0 8.0
2019-Mar-19 00:02N 40°27' W 073°47'1 8.2
2019-Mar-18 23:53N 40°27' W 073°49'4 9.7
2019-Mar-18 23:30N 40°29' W 073°53'714.1
2019-Mar-18 23:00N 40°32' W 074°01'815.2
2019-Mar-18 22:31N 40°39' W 074°03'713.1
2019-Mar-18 22:00N 40°46' W 074°01'1 1.2
2019-Mar-18 21:29N 40°46' W 073°60'0 0.0
2019-Mar-18 20:58N 40°46' W 073°60'0 0.0
2019-Mar-18 20:28N 40°46' W 073°60'0 0.0
2019-Mar-18 19:55N 40°46' W 073°60'0 0.0
2019-Mar-18 19:28N 40°46' W 073°60'0 0.0
2019-Mar-18 18:58N 40°46' W 073°60'0 0.0
2019-Mar-18 18:30N 40°46' W 073°60'0 0.0
2019-Mar-18 17:57N 40°46' W 073°60'0 0.0
2019-Mar-18 17:24N 40°46' W 073°60'0 0.0
2019-Mar-18 17:00N 40°46' W 073°60'0 0.0
2019-Mar-18 16:29N 40°46' W 073°60'0 0.0
2019-Mar-18 15:56N 40°46' W 073°60'0 0.0
2019-Mar-18 15:29N 40°46' W 073°60'0 0.0
2019-Mar-18 14:50N 40°46' W 073°60'0 0.0
2019-Mar-18 14:26N 40°46' W 073°60'0 0.0
2019-Mar-18 14:00N 40°46' W 073°60'0 0.6
2019-Mar-18 13:30N 40°46' W 074°00'3 6.9
2019-Mar-18 13:01N 40°43' W 074°02'510.5
2019-Mar-18 12:30N 40°37' W 074°03'713.6
2019-Mar-18 12:00N 40°31' W 073°60'510.5
2019-Mar-18 11:30N 40°29' W 073°53'5 9.1
2019-Mar-18 10:59N 40°27' W 073°48'4 8.4
2019-Mar-18 10:30N 40°24' W 073°43'4 9.0
2019-Mar-18 10:00N 40°22' W 073°39'13622.7
2019-Mar-18 04:00N 38°18' W 072°24'54121.7 310 / 161023.2 6.0 16.0
2019-Mar-17 03:00N 29°42' W 069°06'72317.6 250 / 131020.0 21.0 25.0
2019-Mar-15 09:50N 18°17' W 064°55'412.1
2019-Mar-15 09:30N 18°13' W 064°53'713.5
2019-Mar-15 09:00N 18°11' W 064°46'6314.8
2019-Mar-15 04:44N 17°58' W 063°41'516.7
2019-Mar-15 04:27N 17°56' W 063°37'816.1
2019-Mar-15 03:58N 17°53' W 063°29'815.9
2019-Mar-15 03:27N 17°49' W 063°22'1635.1
2019-Mar-15 03:00N 17°42' W 063°06'9987.4 090 / 241017.7 24.0 27.0
2019-Mar-15 02:59N 17°46' W 063°14'815.7
2019-Mar-15 02:28N 17°42' W 063°07'915.7
2019-Mar-15 01:52N 17°38' W 062°58'716.5
2019-Mar-15 01:27N 17°35' W 062°51'129 6.0
2019-Mar-14 04:00N 15°42' W 061°48'6019.3 090 / 241015.9 25.0 24.0
2019-Mar-14 00:52N 14°45' W 061°28'820.4
2019-Mar-14 00:28N 14°37' W 061°25'920.4
2019-Mar-14 00:00N 14°29' W 061°21'1021.2
2019-Mar-13 23:31N 14°20' W 061°15'1020.9
2019-Mar-13 23:01N 14°11' W 061°10'1019.7
2019-Mar-13 22:30N 14°03' W 061°03'4 0.4
2019-Mar-13 12:36N 14°01' W 060°60'4713.1
2019-Mar-13 09:00N 14°42' W 061°24'15619.8 090 / 151014.010.8 24.6
2019-Mar-13 01:06N 16°55' W 062°50'220.0
2019-Mar-13 01:00N 16°57' W 062°51'2819.8
2019-Mar-12 23:35N 17°22' W 063°04'319.8
2019-Mar-12 23:27N 17°24' W 063°05'1419.7
2019-Mar-12 22:44N 17°38' W 063°06'520.1
2019-Mar-12 22:30N 17°43' W 063°06'1119.8
2019-Mar-12 21:57N 17°54' W 063°05'712.9
2019-Mar-12 21:27N 18°00' W 063°04'1 1.0
2019-Mar-12 20:23N 18°01' W 063°03'0 0.0
2019-Mar-12 19:32N 18°01' W 063°03'0 0.0
2019-Mar-12 19:20N 18°01' W 063°03'0 0.0
2019-Mar-12 18:10N 18°01' W 063°03'0 0.0
2019-Mar-12 17:52N 18°01' W 063°03'0 0.0
2019-Mar-12 17:22N 18°01' W 063°03'0 0.0
2019-Mar-12 16:24N 18°01' W 063°03'0 0.0
2019-Mar-12 15:57N 18°01' W 063°03'0 0.0
2019-Mar-12 15:18N 18°01' W 063°03'0 0.0
2019-Mar-12 14:51N 18°01' W 063°03'0 0.0
2019-Mar-12 14:18N 18°01' W 063°03'0 0.0
2019-Mar-12 13:41N 18°01' W 063°03'0 0.5
2019-Mar-12 13:16N 18°01' W 063°03'1 4.1
2019-Mar-12 12:58N 18°00' W 063°04'  

Dump ship's entire track history